Reminderville, Ohio
Current Conditions -  °F | °C
As of 10:45 AM on Sunday 21 Dec 2014 (Local Time) from KCGF Reporting Station
Overcast Overcast  
Wind Chill: 28°   Ceiling: 2100
Heat Index: 34°   Visibility: 7mi
Dew Point: 23°   Wind: 7mph
Humidity: 65%   Direction: 220°SW
Pressure: 30.32"   Gusts: NA
Location:  41.3188°N, 81.3369°W
Report Text: KCGF 211545Z 22006KT 7SM OVC021 01/M05 A3032
Loading
Personal Weather Stations






























Interactive Weather Map New forecast layout! Learn more

10-Day Weather Forecast

Advertisements
Track Severe Weather on mobile